Time;durP1;ratioP1;P1;durP2;ratioP2;P2;SDS_P1;SDS_P2;PMS_P1;PMS_P2;Temp;Humidity;BMP_temperature;BMP_pressure;BME280_temperature;BME280_humidity;BME280_pressure;Samples;Min_cycle;Max_cycle;Signal;HPM_P1;HPM_P2
2024/03/23 00:01:28;;;;;;;;;;;5.90;99.90;;;;;;5035849;28;19917;-55
2024/03/23 00:03:54;;;;;;;;;;;5.80;99.90;;;;;;5037880;28;19944;-54
2024/03/23 00:06:20;;;;;;;;;;;5.90;99.90;;;;;;5050104;28;19941;-53
2024/03/23 00:08:46;;;;;;;;;;;5.80;99.90;;;;;;5038086;28;19951;-55
2024/03/23 00:11:12;;;;;;;;;;;5.90;99.90;;;;;;5032439;28;19964;-58
2024/03/23 00:13:37;;;;;;;;;;;5.90;99.90;;;;;;5048042;28;20416;-56
2024/03/23 00:16:04;;;;;;;;;;;5.80;99.90;;;;;;5039634;28;19952;-58
2024/03/23 00:18:30;;;;;;;;;;;5.90;99.90;;;;;;5040114;28;19999;-55
2024/03/23 00:20:58;;;;;;;;;;;5.90;99.90;;;;;;5032097;28;19921;-56
2024/03/23 00:23:24;;;;;;;;;;;5.90;99.90;;;;;;5033994;28;19996;-55
2024/03/23 00:25:51;;;;;;;;;;;5.90;99.90;;;;;;5037768;28;19951;-52
2024/03/23 00:28:17;;;;;;;;;;;5.90;99.90;;;;;;5039536;28;20027;-59
2024/03/23 00:30:43;;;;;;;;;;;5.90;99.90;;;;;;5031855;28;20651;-59
2024/03/23 00:33:09;;;;;;;;;;;5.90;99.90;;;;;;5039932;28;20011;-57
2024/03/23 00:35:35;;;;;;;;;;;6.00;99.90;;;;;;5039865;28;19959;-56
2024/03/23 00:38:01;;;;;;;;;;;6.00;99.90;;;;;;5039768;28;20431;-59
2024/03/23 00:40:27;;;;;;;;;;;6.00;99.90;;;;;;5039237;28;20066;-57
2024/03/23 00:42:53;;;;;;;;;;;6.10;99.90;;;;;;5031783;28;19964;-54
2024/03/23 00:45:19;;;;;;;;;;;5.90;99.90;;;;;;5039435;28;19937;-52
2024/03/23 00:47:45;;;;;;;;;;;6.00;99.90;;;;;;5036727;28;19956;-57
2024/03/23 00:50:11;;;;;;;;;;;6.00;99.90;;;;;;5042115;28;19952;-60
2024/03/23 00:52:36;;;;;;;;;;;6.00;99.90;;;;;;5030679;28;20568;-57
2024/03/23 00:55:02;;;;;;;;;;;6.10;99.90;;;;;;5031377;28;19945;-57
2024/03/23 00:57:27;;;;;;;;;;;6.10;99.90;;;;;;5031138;28;19917;-60
2024/03/23 00:59:53;;;;;;;;;;;6.10;99.90;;;;;;5030711;28;19917;-57
2024/03/23 01:02:18;;;;;;;;;;;6.20;99.90;;;;;;5032538;28;19917;-56
2024/03/23 01:04:44;;;;;;;;;;;6.20;99.90;;;;;;5037755;28;19921;-57
2024/03/23 01:07:09;;;;;;;;;;;6.20;99.90;;;;;;5039013;28;20027;-59
2024/03/23 01:09:35;;;;;;;;;;;6.20;99.90;;;;;;5030613;28;19917;-55
2024/03/23 01:12:01;;;;;;;;;;;6.30;99.90;;;;;;5038563;28;20312;-53
2024/03/23 01:14:27;;;;;;;;;;;6.30;99.90;;;;;;5040240;28;19920;-54
2024/03/23 01:16:52;;;;;;;;;;;6.40;99.90;;;;;;5037092;28;19986;-56
2024/03/23 01:19:17;;;;;;;;;;;6.40;99.90;;;;;;5032334;28;19917;-54
2024/03/23 01:21:43;;;;;;;;;;;6.40;99.90;;;;;;5030794;28;19964;-57
2024/03/23 01:24:10;;;;;;;;;;;6.50;99.90;;;;;;5035049;28;19932;-55
2024/03/23 01:26:37;;;;;;;;;;;6.60;99.90;;;;;;5038702;28;19920;-57
2024/03/23 01:29:02;;;;;;;;;;;6.60;99.90;;;;;;5034605;28;20309;-55
2024/03/23 01:31:27;;;;;;;;;;;6.70;99.90;;;;;;5030507;28;19921;-53
2024/03/23 01:33:53;;;;;;;;;;;6.70;99.90;;;;;;5038854;28;20355;-56
2024/03/23 01:36:19;;;;;;;;;;;6.70;99.90;;;;;;5039838;28;19913;-53
2024/03/23 01:38:45;;;;;;;;;;;6.70;99.90;;;;;;5036627;28;19957;-53
2024/03/23 01:41:10;;;;;;;;;;;6.70;99.90;;;;;;5030430;28;20385;-56
2024/03/23 01:43:35;;;;;;;;;;;6.80;99.90;;;;;;5030449;28;19920;-55
2024/03/23 01:46:01;;;;;;;;;;;6.80;99.90;;;;;;5037376;28;20420;-57
2024/03/23 01:48:26;;;;;;;;;;;6.90;99.90;;;;;;5030498;28;19921;-54
2024/03/23 01:50:53;;;;;;;;;;;6.90;99.90;;;;;;5030277;28;19963;-60
2024/03/23 01:53:21;;;;;;;;;;;6.90;99.90;;;;;;5038183;28;19917;-59
2024/03/23 01:55:47;;;;;;;;;;;6.90;99.90;;;;;;5035336;28;19966;-56
2024/03/23 01:58:12;;;;;;;;;;;6.80;99.90;;;;;;5033204;28;19913;-57
2024/03/23 02:00:38;;;;;;;;;;;6.80;99.90;;;;;;5041823;28;19913;-57
2024/03/23 02:03:21;;;;;;;;;;;6.90;99.90;;;;;;5049266;28;19920;-57
2024/03/23 02:05:47;;;;;;;;;;;6.90;99.90;;;;;;5041678;28;20007;-56
2024/03/23 02:08:12;;;;;;;;;;;6.90;99.90;;;;;;5040368;28;20369;-59
2024/03/23 02:10:37;;;;;;;;;;;6.90;99.90;;;;;;5030109;28;20381;-58
2024/03/23 02:13:03;;;;;;;;;;;7.00;99.90;;;;;;5037489;28;19916;-56
2024/03/23 02:15:28;;;;;;;;;;;7.00;99.90;;;;;;5031039;28;20525;-57
2024/03/23 02:17:54;;;;;;;;;;;7.00;99.90;;;;;;5029967;28;20012;-53
2024/03/23 02:20:19;;;;;;;;;;;7.00;99.90;;;;;;5039001;28;20339;-56
2024/03/23 02:22:45;;;;;;;;;;;6.90;99.90;;;;;;5041654;28;19920;-55
2024/03/23 02:25:10;;;;;;;;;;;6.90;99.90;;;;;;5049652;28;19917;-54
2024/03/23 02:27:38;;;;;;;;;;;6.90;99.90;;;;;;5041445;28;19970;-53
2024/03/23 02:30:04;;;;;;;;;;;6.90;99.90;;;;;;5033533;28;19921;-54
2024/03/23 02:32:30;;;;;;;;;;;6.90;99.90;;;;;;5030132;28;19987;-53
2024/03/23 02:34:55;;;;;;;;;;;6.90;99.90;;;;;;5037895;28;19955;-56
2024/03/23 02:37:21;;;;;;;;;;;7.00;99.90;;;;;;5029607;28;19920;-52
2024/03/23 02:39:46;;;;;;;;;;;7.00;99.90;;;;;;5037541;28;19975;-52
2024/03/23 02:42:12;;;;;;;;;;;7.00;99.90;;;;;;5029630;28;20674;-55
2024/03/23 02:44:37;;;;;;;;;;;7.00;99.90;;;;;;5038003;28;19917;-58
2024/03/23 02:47:02;;;;;;;;;;;7.00;99.90;;;;;;5036635;28;19925;-56
2024/03/23 02:49:28;;;;;;;;;;;6.90;99.90;;;;;;5029932;28;19956;-55
2024/03/23 02:51:53;;;;;;;;;;;6.90;99.90;;;;;;5029524;28;19925;-56
2024/03/23 02:54:19;;;;;;;;;;;6.80;99.90;;;;;;5029333;28;19917;-52
2024/03/23 02:56:44;;;;;;;;;;;6.80;99.90;;;;;;5029455;28;19917;-54
2024/03/23 02:59:10;;;;;;;;;;;6.80;99.90;;;;;;5037163;28;19917;-63
2024/03/23 03:01:35;;;;;;;;;;;6.80;99.90;;;;;;5032972;28;19913;-57
2024/03/23 03:04:01;;;;;;;;;;;6.70;99.90;;;;;;5034162;28;20456;-53
2024/03/23 03:06:26;;;;;;;;;;;6.70;99.90;;;;;;5029381;28;19953;-57
2024/03/23 03:08:52;;;;;;;;;;;6.60;99.90;;;;;;5028822;28;20016;-58
2024/03/23 03:11:17;;;;;;;;;;;6.60;99.90;;;;;;5037605;28;20008;-60
2024/03/23 03:13:43;;;;;;;;;;;6.60;99.90;;;;;;5029521;28;20024;-53
2024/03/23 03:16:12;;;;;;;;;;;6.50;99.90;;;;;;5040651;28;19913;-55
2024/03/23 03:18:38;;;;;;;;;;;6.50;99.90;;;;;;5028652;28;19967;-58
2024/03/23 03:21:05;;;;;;;;;;;6.50;99.90;;;;;;5037396;28;19917;-52
2024/03/23 03:23:31;;;;;;;;;;;6.50;99.90;;;;;;5033019;28;19967;-58
2024/03/23 03:25:57;;;;;;;;;;;6.50;99.90;;;;;;5032891;28;19960;-57
2024/03/23 03:28:22;;;;;;;;;;;6.40;99.90;;;;;;5032178;28;20316;-55
2024/03/23 03:30:47;;;;;;;;;;;6.50;99.90;;;;;;5041069;28;19929;-52
2024/03/23 03:33:13;;;;;;;;;;;6.40;99.90;;;;;;5032751;28;20497;-53
2024/03/23 03:35:38;;;;;;;;;;;6.40;99.90;;;;;;5040936;28;19913;-55
2024/03/23 03:38:04;;;;;;;;;;;6.30;99.90;;;;;;5032712;28;19913;-53
2024/03/23 03:40:30;;;;;;;;;;;6.30;99.90;;;;;;5040235;28;19924;-53
2024/03/23 03:42:55;;;;;;;;;;;6.20;99.90;;;;;;5032770;28;19917;-56
2024/03/23 03:45:21;;;;;;;;;;;6.20;99.90;;;;;;5033909;28;19920;-53
2024/03/23 03:47:46;;;;;;;;;;;6.20;99.90;;;;;;5039178;28;19953;-55
2024/03/23 03:50:12;;;;;;;;;;;6.20;99.90;;;;;;5032108;28;20015;-56
2024/03/23 03:52:37;;;;;;;;;;;6.20;99.90;;;;;;5032882;28;20305;-56
2024/03/23 03:55:03;;;;;;;;;;;6.10;99.90;;;;;;5032382;28;20012;-57
2024/03/23 03:57:29;;;;;;;;;;;6.10;99.90;;;;;;5051403;28;19916;-60
2024/03/23 03:59:54;;;;;;;;;;;6.10;99.90;;;;;;5037639;28;19965;-55
2024/03/23 04:02:19;;;;;;;;;;;6.10;99.90;;;;;;5041750;28;19913;-57
2024/03/23 04:04:45;;;;;;;;;;;6.10;99.90;;;;;;5039329;28;19917;-56
2024/03/23 04:07:10;;;;;;;;;;;6.10;99.90;;;;;;5040413;28;19924;-59
2024/03/23 04:09:36;;;;;;;;;;;6.00;99.90;;;;;;5031689;28;19917;-57
2024/03/23 04:12:01;;;;;;;;;;;6.00;99.90;;;;;;5032198;28;19936;-57
2024/03/23 04:14:27;;;;;;;;;;;6.00;99.90;;;;;;5040106;28;19927;-56
2024/03/23 04:16:52;;;;;;;;;;;5.90;99.90;;;;;;5045879;28;19923;-56
2024/03/23 04:19:18;;;;;;;;;;;5.90;99.90;;;;;;5050303;28;20270;-57
2024/03/23 04:21:43;;;;;;;;;;;5.80;99.90;;;;;;5031982;28;20043;-60
2024/03/23 04:24:08;;;;;;;;;;;5.80;99.90;;;;;;5032447;28;19917;-53
2024/03/23 04:26:40;;;;;;;;;;;5.80;99.90;;;;;;5031340;28;19925;-55
2024/03/23 04:29:06;;;;;;;;;;;5.70;99.90;;;;;;5031386;28;19920;-56
2024/03/23 04:31:34;;;;;;;;;;;5.70;99.90;;;;;;5039828;28;20015;-59
2024/03/23 04:33:59;;;;;;;;;;;5.70;99.90;;;;;;5031778;28;19999;-53
2024/03/23 04:36:25;;;;;;;;;;;5.70;99.90;;;;;;5039785;28;20000;-59
2024/03/23 04:38:52;;;;;;;;;;;5.60;99.90;;;;;;5036569;28;20389;-52
2024/03/23 04:41:18;;;;;;;;;;;5.60;99.90;;;;;;5042281;28;19928;-57
2024/03/23 04:43:43;;;;;;;;;;;5.60;99.90;;;;;;5031676;28;19913;-59
2024/03/23 04:46:09;;;;;;;;;;;5.50;99.90;;;;;;5031401;28;19932;-52
2024/03/23 04:48:35;;;;;;;;;;;5.40;99.90;;;;;;5030831;28;19996;-55
2024/03/23 04:51:00;;;;;;;;;;;5.30;99.90;;;;;;5039624;28;19975;-55
2024/03/23 04:53:28;;;;;;;;;;;5.30;99.90;;;;;;5031376;28;20388;-55
2024/03/23 04:55:56;;;;;;;;;;;5.30;99.90;;;;;;5039445;28;20389;-56
2024/03/23 04:58:23;;;;;;;;;;;5.30;99.90;;;;;;5030573;28;19913;-56
2024/03/23 05:00:52;;;;;;;;;;;5.20;99.90;;;;;;5031308;28;20332;-55
2024/03/23 05:03:19;;;;;;;;;;;5.20;99.90;;;;;;5039257;28;19913;-54
2024/03/23 05:05:44;;;;;;;;;;;5.10;99.90;;;;;;5035735;28;19962;-57
2024/03/23 05:08:10;;;;;;;;;;;5.10;99.90;;;;;;5042936;28;19917;-57
2024/03/23 05:10:35;;;;;;;;;;;5.00;99.90;;;;;;5038478;28;19924;-52
2024/03/23 05:13:01;;;;;;;;;;;4.90;99.90;;;;;;5031038;28;20381;-52
2024/03/23 05:15:27;;;;;;;;;;;4.90;99.90;;;;;;5038926;28;19917;-52
2024/03/23 05:17:54;;;;;;;;;;;4.80;99.90;;;;;;5030926;28;19917;-54
2024/03/23 05:20:19;;;;;;;;;;;4.70;99.90;;;;;;5030214;28;20384;-54
2024/03/23 05:22:45;;;;;;;;;;;4.60;99.90;;;;;;5043694;28;19917;-55
2024/03/23 05:25:11;;;;;;;;;;;4.60;99.90;;;;;;5042324;28;20412;-52
2024/03/23 05:27:36;;;;;;;;;;;4.50;99.90;;;;;;5030418;28;20292;-55
2024/03/23 05:30:03;;;;;;;;;;;4.50;99.90;;;;;;5030293;28;20055;-57
2024/03/23 05:32:29;;;;;;;;;;;4.50;99.90;;;;;;5032992;28;19925;-53
2024/03/23 05:34:57;;;;;;;;;;;4.50;99.90;;;;;;5036438;28;20384;-55
2024/03/23 05:37:23;;;;;;;;;;;4.50;99.90;;;;;;5029989;28;19956;-54
2024/03/23 05:39:52;;;;;;;;;;;4.40;99.90;;;;;;5035086;28;19990;-55
2024/03/23 05:42:17;;;;;;;;;;;4.40;99.90;;;;;;5048839;28;19929;-52
2024/03/23 05:44:46;;;;;;;;;;;4.40;99.90;;;;;;5029496;28;20008;-57
2024/03/23 05:47:16;;;;;;;;;;;4.40;99.90;;;;;;5029277;28;19928;-56
2024/03/23 05:49:41;;;;;;;;;;;4.40;99.90;;;;;;5037194;28;20235;-57
2024/03/23 05:52:08;;;;;;;;;;;4.40;99.90;;;;;;5037129;28;19919;-52
2024/03/23 05:54:33;;;;;;;;;;;4.40;99.90;;;;;;5038193;28;20361;-55
2024/03/23 05:56:59;;;;;;;;;;;4.40;99.90;;;;;;5037603;28;20266;-55
2024/03/23 05:59:24;;;;;;;;;;;4.30;99.90;;;;;;5037236;28;19966;-53
2024/03/23 06:01:50;;;;;;;;;;;4.40;99.90;;;;;;5029633;28;20320;-53
2024/03/23 06:04:15;;;;;;;;;;;4.30;99.90;;;;;;5045700;28;19912;-56
2024/03/23 06:06:41;;;;;;;;;;;4.30;99.90;;;;;;5029374;28;19952;-57
2024/03/23 06:09:06;;;;;;;;;;;4.30;99.90;;;;;;5044581;28;19980;-54
2024/03/23 06:11:32;;;;;;;;;;;4.30;99.90;;;;;;5030006;28;19925;-52
2024/03/23 06:13:57;;;;;;;;;;;4.30;99.90;;;;;;5043905;28;19920;-55
2024/03/23 06:16:27;;;;;;;;;;;4.40;99.90;;;;;;5047500;28;19913;-55
2024/03/23 06:18:52;;;;;;;;;;;4.40;99.90;;;;;;5028809;28;20102;-52
2024/03/23 06:21:18;;;;;;;;;;;4.40;99.90;;;;;;5029436;28;20024;-56
2024/03/23 06:23:50;;;;;;;;;;;4.40;99.90;;;;;;5029206;28;19909;-57
2024/03/23 06:26:19;;;;;;;;;;;4.60;99.90;;;;;;5045745;28;19920;-53
2024/03/23 06:28:45;;;;;;;;;;;4.60;99.90;;;;;;5037355;28;19919;-60
2024/03/23 06:31:11;;;;;;;;;;;4.60;99.90;;;;;;5037260;28;19921;-58
2024/03/23 06:33:36;;;;;;;;;;;4.70;99.90;;;;;;5029380;28;20410;-57
2024/03/23 06:36:03;;;;;;;;;;;4.70;99.90;;;;;;5029941;28;19917;-58
2024/03/23 06:38:28;;;;;;;;;;;4.80;99.90;;;;;;5028494;28;19917;-59
2024/03/23 06:40:54;;;;;;;;;;;4.80;99.90;;;;;;5029420;28;19914;-59
2024/03/23 06:43:19;;;;;;;;;;;4.80;99.90;;;;;;5037510;28;20351;-58
2024/03/23 06:45:51;;;;;;;;;;;4.80;99.90;;;;;;5029066;28;19917;-56
2024/03/23 06:48:17;;;;;;;;;;;4.80;99.90;;;;;;5029392;28;19917;-52
2024/03/23 06:50:42;;;;;;;;;;;4.90;99.90;;;;;;5038847;28;20393;-56
2024/03/23 06:53:08;;;;;;;;;;;4.90;99.90;;;;;;5048731;28;19916;-59
2024/03/23 06:55:33;;;;;;;;;;;5.00;99.90;;;;;;5041796;28;19967;-58
2024/03/23 06:57:59;;;;;;;;;;;5.00;99.90;;;;;;5032847;28;19913;-56
2024/03/23 07:00:25;;;;;;;;;;;4.90;99.90;;;;;;5033923;28;19917;-55
2024/03/23 07:02:50;;;;;;;;;;;4.90;99.90;;;;;;5039622;28;19917;-56
2024/03/23 07:05:15;;;;;;;;;;;4.90;99.90;;;;;;5032453;28;19917;-59
2024/03/23 07:07:41;;;;;;;;;;;4.90;99.90;;;;;;5040680;28;19917;-55
2024/03/23 07:10:06;;;;;;;;;;;5.10;99.90;;;;;;5032376;28;19917;-57
2024/03/23 07:12:35;;;;;;;;;;;5.10;99.90;;;;;;5043352;28;20320;-58
2024/03/23 07:15:00;;;;;;;;;;;5.20;99.90;;;;;;5037981;28;19963;-56
2024/03/23 07:17:26;;;;;;;;;;;5.30;99.90;;;;;;5032290;28;19921;-59
2024/03/23 07:19:51;;;;;;;;;;;5.40;99.90;;;;;;5032078;28;20016;-58
2024/03/23 07:22:17;;;;;;;;;;;5.60;99.90;;;;;;5032293;28;20282;-56
2024/03/23 07:24:44;;;;;;;;;;;5.70;99.90;;;;;;5032353;28;19940;-57
2024/03/23 07:27:09;;;;;;;;;;;5.70;99.90;;;;;;5040472;28;19917;-54
2024/03/23 07:29:35;;;;;;;;;;;5.60;99.90;;;;;;5040961;28;19943;-53
2024/03/23 07:32:01;;;;;;;;;;;5.60;99.90;;;;;;5040830;28;19913;-54
2024/03/23 07:34:26;;;;;;;;;;;5.50;99.90;;;;;;5014255;28;19918;-56
2024/03/23 07:36:52;;;;;;;;;;;5.40;99.90;;;;;;5037255;28;19913;-53
2024/03/23 07:39:17;;;;;;;;;;;5.40;99.90;;;;;;5042733;28;19916;-55
2024/03/23 07:41:45;;;;;;;;;;;5.30;99.90;;;;;;5036312;28;19917;-56
2024/03/23 07:44:11;;;;;;;;;;;5.30;99.90;;;;;;5044108;28;20305;-56
2024/03/23 07:46:36;;;;;;;;;;;5.40;99.90;;;;;;5031736;28;19921;-60
2024/03/23 07:49:04;;;;;;;;;;;5.40;99.90;;;;;;5031500;28;19913;-56
2024/03/23 07:51:29;;;;;;;;;;;5.40;99.90;;;;;;5033880;28;19929;-52
2024/03/23 07:53:55;;;;;;;;;;;5.40;99.90;;;;;;5037998;28;19917;-55
2024/03/23 07:56:21;;;;;;;;;;;5.50;99.90;;;;;;5031607;28;19916;-54
2024/03/23 07:58:47;;;;;;;;;;;5.40;99.90;;;;;;5031489;28;19917;-60
2024/03/23 08:01:16;;;;;;;;;;;5.50;99.90;;;;;;5030364;28;19948;-60
2024/03/23 08:03:45;;;;;;;;;;;5.40;99.90;;;;;;5031816;28;20364;-56
2024/03/23 08:06:15;;;;;;;;;;;5.60;99.90;;;;;;5031614;28;19947;-59
2024/03/23 08:08:41;;;;;;;;;;;5.60;99.90;;;;;;5026910;28;19916;-54
2024/03/23 08:11:07;;;;;;;;;;;5.70;99.90;;;;;;5044194;28;19920;-53
2024/03/23 08:13:34;;;;;;;;;;;5.70;99.90;;;;;;5031641;28;19971;-58
2024/03/23 08:16:00;;;;;;;;;;;5.60;99.90;;;;;;5031446;28;20352;-58
2024/03/23 08:18:25;;;;;;;;;;;5.70;99.90;;;;;;5047290;28;19919;-58
2024/03/23 08:20:57;;;;;;;;;;;5.70;99.90;;;;;;5031526;28;19913;-56
2024/03/23 08:23:24;;;;;;;;;;;5.80;99.90;;;;;;5040637;28;19917;-56
2024/03/23 08:25:49;;;;;;;;;;;5.80;99.90;;;;;;5037980;28;19967;-55
2024/03/23 08:28:14;;;;;;;;;;;6.10;99.90;;;;;;5038801;28;19916;-58
2024/03/23 08:30:40;;;;;;;;;;;6.30;99.90;;;;;;5031308;28;19921;-55
2024/03/23 08:33:05;;;;;;;;;;;6.50;99.90;;;;;;5031091;28;19987;-56
2024/03/23 08:35:31;;;;;;;;;;;6.60;99.90;;;;;;5033140;28;19917;-53
2024/03/23 08:37:56;;;;;;;;;;;7.00;99.90;;;;;;5037044;28;19958;-54
2024/03/23 08:40:22;;;;;;;;;;;7.50;99.90;;;;;;5031558;28;20251;-59
2024/03/23 08:42:47;;;;;;;;;;;8.10;99.90;;;;;;5042867;28;19964;-57
2024/03/23 08:45:13;;;;;;;;;;;8.50;99.90;;;;;;5034612;28;19924;-55
2024/03/23 08:47:38;;;;;;;;;;;9.00;99.90;;;;;;5042029;28;19928;-57
2024/03/23 08:50:04;;;;;;;;;;;8.90;99.90;;;;;;5035394;28;19947;-58
2024/03/23 08:52:29;;;;;;;;;;;8.40;99.90;;;;;;5030818;28;20392;-57
2024/03/23 08:54:56;;;;;;;;;;;8.30;99.90;;;;;;5030709;28;19913;-57
2024/03/23 08:57:22;;;;;;;;;;;8.40;99.90;;;;;;5030526;28;19913;-58
2024/03/23 08:59:47;;;;;;;;;;;8.30;99.90;;;;;;5030255;28;19917;-61
2024/03/23 09:02:13;;;;;;;;;;;8.10;99.90;;;;;;5046942;28;20445;-57
2024/03/23 09:04:38;;;;;;;;;;;7.90;99.90;;;;;;5039214;28;20047;-58
2024/03/23 09:07:04;;;;;;;;;;;7.80;99.90;;;;;;5030400;28;19924;-58
2024/03/23 09:09:30;;;;;;;;;;;8.00;99.90;;;;;;5029935;28;20322;-58
2024/03/23 09:11:55;;;;;;;;;;;8.20;99.90;;;;;;5035757;28;20403;-56
2024/03/23 09:14:22;;;;;;;;;;;8.50;99.90;;;;;;5040719;28;19908;-55
2024/03/23 09:16:49;;;;;;;;;;;8.60;99.90;;;;;;5030283;28;20348;-52
2024/03/23 09:19:15;;;;;;;;;;;8.60;99.90;;;;;;5037823;28;19917;-61
2024/03/23 09:21:40;;;;;;;;;;;8.90;99.90;;;;;;5033608;28;19917;-53
2024/03/23 09:24:06;;;;;;;;;;;9.50;99.90;;;;;;5034872;28;19924;-53
2024/03/23 09:26:32;;;;;;;;;;;10.00;99.90;;;;;;5029917;28;20300;-51
2024/03/23 09:28:57;;;;;;;;;;;10.00;99.90;;;;;;5030008;28;20336;-53
2024/03/23 09:31:22;;;;;;;;;;;10.30;99.90;;;;;;5038172;28;19921;-55
2024/03/23 09:33:48;;;;;;;;;;;9.90;99.90;;;;;;5029957;28;19974;-52
2024/03/23 09:36:13;;;;;;;;;;;9.30;99.90;;;;;;5029921;28;19993;-54
2024/03/23 09:38:40;;;;;;;;;;;8.70;99.90;;;;;;5037553;28;19925;-57
2024/03/23 09:41:09;;;;;;;;;;;8.90;99.90;;;;;;5029741;28;19913;-54
2024/03/23 09:43:34;;;;;;;;;;;9.50;99.90;;;;;;5040781;28;20258;-51
2024/03/23 09:46:01;;;;;;;;;;;10.20;99.90;;;;;;5035316;28;20209;-55
2024/03/23 09:48:26;;;;;;;;;;;10.90;99.90;;;;;;5029049;28;19920;-60
2024/03/23 09:50:52;;;;;;;;;;;10.90;99.90;;;;;;5029569;28;20336;-56
2024/03/23 09:53:19;;;;;;;;;;;10.40;99.90;;;;;;5028798;28;21656;-56
2024/03/23 09:55:45;;;;;;;;;;;9.80;99.90;;;;;;5029294;28;19917;-55
2024/03/23 09:58:17;;;;;;;;;;;9.40;99.90;;;;;;5029573;28;20403;-51
2024/03/23 10:00:43;;;;;;;;;;;9.10;99.90;;;;;;5025534;28;20290;-57
2024/03/23 10:03:10;;;;;;;;;;;9.10;99.90;;;;;;5041084;28;19941;-57
2024/03/23 10:05:39;;;;;;;;;;;9.50;99.90;;;;;;5041104;28;19923;-55
2024/03/23 10:08:13;;;;;;;;;;;10.50;99.90;;;;;;5034232;28;20387;-53
2024/03/23 10:10:39;;;;;;;;;;;11.60;99.90;;;;;;5037143;28;19918;-60
2024/03/23 10:13:04;;;;;;;;;;;11.10;99.90;;;;;;5036074;28;20286;-57
2024/03/23 10:15:33;;;;;;;;;;;10.50;99.90;;;;;;5038524;28;19963;-55
2024/03/23 10:18:04;;;;;;;;;;;9.80;99.90;;;;;;5035043;28;19913;-57
2024/03/23 10:20:30;;;;;;;;;;;9.30;99.90;;;;;;5030044;28;19976;-56
2024/03/23 10:22:56;;;;;;;;;;;9.30;99.90;;;;;;5034518;28;19927;-55
2024/03/23 10:25:24;;;;;;;;;;;9.10;99.90;;;;;;5047170;28;19917;-54
2024/03/23 10:28:00;;;;;;;;;;;9.20;99.90;;;;;;5028878;28;19913;-52
2024/03/23 10:30:27;;;;;;;;;;;9.30;99.90;;;;;;5036765;28;19924;-58
2024/03/23 10:33:11;;;;;;;;;;;9.20;99.90;;;;;;5029031;28;19913;-52
2024/03/23 10:35:37;;;;;;;;;;;9.30;99.90;;;;;;5037146;28;19925;-53
2024/03/23 10:38:06;;;;;;;;;;;9.30;99.90;;;;;;5028848;28;19941;-56
2024/03/23 10:40:35;;;;;;;;;;;9.40;99.90;;;;;;5028427;28;19913;-50
2024/03/23 10:43:02;;;;;;;;;;;9.90;99.90;;;;;;5036359;28;20079;-52
2024/03/23 10:45:28;;;;;;;;;;;9.90;99.90;;;;;;5028470;28;20024;-59
2024/03/23 10:47:53;;;;;;;;;;;9.80;99.90;;;;;;5037285;28;20463;-53
2024/03/23 10:50:19;;;;;;;;;;;9.60;99.90;;;;;;5036419;28;20097;-54
2024/03/23 10:52:46;;;;;;;;;;;8.50;99.90;;;;;;5028981;28;19921;-56
2024/03/23 10:55:12;;;;;;;;;;;7.60;99.90;;;;;;5028925;28;19917;-57
2024/03/23 10:57:41;;;;;;;;;;;7.10;99.90;;;;;;5028593;28;19920;-53
2024/03/23 11:00:07;;;;;;;;;;;6.80;99.90;;;;;;5028458;28;19936;-53
2024/03/23 11:02:33;;;;;;;;;;;6.80;99.90;;;;;;5037051;28;19920;-53
2024/03/23 11:04:58;;;;;;;;;;;7.20;99.90;;;;;;5028754;28;20301;-57
2024/03/23 11:07:24;;;;;;;;;;;7.60;99.90;;;;;;5036642;28;19958;-54
2024/03/23 11:09:56;;;;;;;;;;;7.80;99.90;;;;;;5028239;28;20243;-56
2024/03/23 11:12:30;;;;;;;;;;;8.20;99.90;;;;;;5037212;28;19918;-58
2024/03/23 11:14:58;;;;;;;;;;;8.40;99.90;;;;;;5028719;28;20358;-54
2024/03/23 11:17:25;;;;;;;;;;;8.50;99.90;;;;;;5029534;28;19968;-59
2024/03/23 11:19:55;;;;;;;;;;;8.50;99.90;;;;;;5040331;28;19916;-59
2024/03/23 11:22:37;;;;;;;;;;;8.40;99.90;;;;;;5039487;28;19916;-59
2024/03/23 11:25:02;;;;;;;;;;;8.40;99.90;;;;;;5028409;28;20285;-57
2024/03/23 11:27:28;;;;;;;;;;;8.40;99.90;;;;;;5029979;28;19921;-55
2024/03/23 11:29:53;;;;;;;;;;;8.40;99.90;;;;;;5042882;28;19913;-57
2024/03/23 11:32:19;;;;;;;;;;;8.40;99.90;;;;;;5028354;28;19932;-56
2024/03/23 11:34:44;;;;;;;;;;;8.40;99.90;;;;;;5040614;28;20011;-57
2024/03/23 11:37:10;;;;;;;;;;;8.30;99.90;;;;;;5035808;28;20274;-57
2024/03/23 11:39:35;;;;;;;;;;;8.30;99.90;;;;;;5031529;28;19924;-57
2024/03/23 11:42:01;;;;;;;;;;;8.10;99.90;;;;;;5032740;28;19963;-55
2024/03/23 11:44:26;;;;;;;;;;;8.00;99.90;;;;;;5033155;28;19936;-53
2024/03/23 11:46:52;;;;;;;;;;;7.90;99.90;;;;;;5046603;28;19975;-53
2024/03/23 11:49:27;;;;;;;;;;;7.90;99.90;;;;;;5031052;28;20379;-55
2024/03/23 11:51:54;;;;;;;;;;;8.00;99.90;;;;;;5031869;28;19983;-56
2024/03/23 11:54:21;;;;;;;;;;;8.10;99.90;;;;;;5030503;28;19951;-52
2024/03/23 11:56:58;;;;;;;;;;;8.50;99.90;;;;;;5029543;28;19923;-54
2024/03/23 11:59:30;;;;;;;;;;;8.70;99.90;;;;;;5030291;28;19913;-55
2024/03/23 12:01:56;;;;;;;;;;;8.70;99.90;;;;;;5041699;28;19916;-58
2024/03/23 12:04:25;;;;;;;;;;;8.40;99.90;;;;;;5033209;28;19914;-56
2024/03/23 12:06:51;;;;;;;;;;;8.00;99.90;;;;;;5036570;28;19917;-56
2024/03/23 12:09:16;;;;;;;;;;;7.80;99.90;;;;;;5038765;28;19924;-52
2024/03/23 12:11:42;;;;;;;;;;;7.80;99.90;;;;;;5031187;28;19932;-55
2024/03/23 12:14:07;;;;;;;;;;;7.80;99.90;;;;;;5031377;28;19932;-54
2024/03/23 12:16:33;;;;;;;;;;;7.90;99.90;;;;;;5013288;28;19917;-56
2024/03/23 12:19:04;;;;;;;;;;;7.90;99.90;;;;;;5030648;28;20231;-57
2024/03/23 12:21:30;;;;;;;;;;;8.00;99.90;;;;;;5047428;28;19920;-53
2024/03/23 12:23:56;;;;;;;;;;;8.50;99.90;;;;;;5030949;28;19917;-54
2024/03/23 12:26:23;;;;;;;;;;;9.10;99.90;;;;;;5030665;28;20297;-57
2024/03/23 12:28:48;;;;;;;;;;;9.40;99.90;;;;;;5030700;28;19971;-54
2024/03/23 12:31:14;;;;;;;;;;;9.60;99.90;;;;;;5030895;28;19917;-55
2024/03/23 12:33:39;;;;;;;;;;;9.80;99.90;;;;;;5030800;28;19924;-58
2024/03/23 12:36:05;;;;;;;;;;;10.10;99.90;;;;;;5030963;28;19917;-55
2024/03/23 12:38:30;;;;;;;;;;;10.30;99.90;;;;;;5030060;28;20011;-54
2024/03/23 12:40:56;;;;;;;;;;;10.30;99.90;;;;;;5038764;28;20336;-57
2024/03/23 12:43:21;;;;;;;;;;;10.20;99.90;;;;;;5038778;28;19921;-55
2024/03/23 12:45:47;;;;;;;;;;;10.20;99.90;;;;;;5030549;28;19948;-56
2024/03/23 12:48:12;;;;;;;;;;;9.90;99.90;;;;;;5029856;28;19917;-56
2024/03/23 12:50:38;;;;;;;;;;;9.80;99.90;;;;;;5032446;28;19973;-55
2024/03/23 12:53:04;;;;;;;;;;;9.60;99.90;;;;;;5035687;28;19944;-59
2024/03/23 12:55:29;;;;;;;;;;;9.40;99.90;;;;;;5030011;28;19917;-54
2024/03/23 12:57:54;;;;;;;;;;;9.30;99.90;;;;;;5038619;28;20394;-56
2024/03/23 13:00:20;;;;;;;;;;;9.60;99.90;;;;;;5029728;28;20502;-58
2024/03/23 13:02:45;;;;;;;;;;;9.90;99.90;;;;;;5030409;28;19917;-57
2024/03/23 13:05:11;;;;;;;;;;;10.20;99.90;;;;;;5037597;28;19932;-56
2024/03/23 13:07:38;;;;;;;;;;;10.40;99.90;;;;;;5039040;28;20338;-54
2024/03/23 13:10:04;;;;;;;;;;;10.20;99.90;;;;;;5029454;28;19924;-58
2024/03/23 13:12:30;;;;;;;;;;;9.30;99.90;;;;;;5029934;28;19928;-58
2024/03/23 13:14:56;;;;;;;;;;;8.40;99.90;;;;;;5030257;28;19925;-60
2024/03/23 13:17:21;;;;;;;;;;;7.50;99.90;;;;;;5030146;28;19924;-55
2024/03/23 13:19:47;;;;;;;;;;;6.70;99.90;;;;;;5041463;28;20410;-54
2024/03/23 13:22:12;;;;;;;;;;;6.10;99.90;;;;;;5049966;28;20007;-55
2024/03/23 13:24:38;;;;;;;;;;;6.20;99.90;;;;;;5030393;28;19921;-56
2024/03/23 13:27:05;;;;;;;;;;;6.90;99.90;;;;;;5030290;28;20281;-55
2024/03/23 13:29:30;;;;;;;;;;;7.40;99.90;;;;;;5037862;28;19917;-58
2024/03/23 13:31:56;;;;;;;;;;;7.70;99.90;;;;;;5037470;28;19995;-58
2024/03/23 13:34:22;;;;;;;;;;;7.70;99.90;;;;;;5029700;28;19924;-56
2024/03/23 13:36:47;;;;;;;;;;;7.60;99.90;;;;;;5037796;28;19921;-56
2024/03/23 13:39:13;;;;;;;;;;;7.60;99.90;;;;;;5029172;28;20283;-55
2024/03/23 13:41:39;;;;;;;;;;;7.60;99.90;;;;;;5029425;28;19959;-55
2024/03/23 13:44:10;;;;;;;;;;;7.30;99.90;;;;;;5029910;28;19913;-57
2024/03/23 13:46:35;;;;;;;;;;;7.10;99.90;;;;;;5039461;28;19921;-53
2024/03/23 13:49:01;;;;;;;;;;;6.90;99.90;;;;;;5036468;28;19986;-59
2024/03/23 13:51:27;;;;;;;;;;;7.00;99.90;;;;;;5039569;28;20004;-61
2024/03/23 13:53:56;;;;;;;;;;;7.20;99.90;;;;;;5027769;28;19913;-55
2024/03/23 13:56:22;;;;;;;;;;;7.00;99.90;;;;;;5036215;28;19916;-54
2024/03/23 13:58:47;;;;;;;;;;;7.00;99.90;;;;;;5027473;28;20357;-56
2024/03/23 14:01:14;;;;;;;;;;;6.80;99.90;;;;;;5027615;28;20360;-56
2024/03/23 14:03:40;;;;;;;;;;;6.70;99.90;;;;;;5045410;28;19940;-55
2024/03/23 14:06:07;;;;;;;;;;;6.50;99.90;;;;;;5037395;28;20389;-53
2024/03/23 14:08:35;;;;;;;;;;;6.30;99.90;;;;;;5036619;28;19964;-54
2024/03/23 14:11:01;;;;;;;;;;;6.20;99.90;;;;;;5037798;28;19983;-55
2024/03/23 14:13:27;;;;;;;;;;;6.10;99.90;;;;;;5029501;28;20385;-55
2024/03/23 14:15:55;;;;;;;;;;;6.00;99.90;;;;;;5033838;28;20335;-56
2024/03/23 14:18:24;;;;;;;;;;;5.90;99.90;;;;;;5048387;28;20004;-59
2024/03/23 14:20:50;;;;;;;;;;;5.80;99.90;;;;;;5037647;28;20377;-58
2024/03/23 14:23:15;;;;;;;;;;;5.80;99.90;;;;;;5037622;28;19962;-57